Kahlotus, WA (99335)

3:13 PM PDT en Agosto 29, 2014 (GMT -0700)
Clyde (North) | Change Station
CLOSE
Current Station
Estación meteorológica personal
Location: Prescott, WA
Altura: 1168 ft
Estaciones meteorológicas cercanas

Alt 1168 ft 46.49 °N, 118.50 °W | Updated 6 minutes ago

Despejado
Despejado
82.8 ° F
Sensación térmica 81 ° F
N
9.0
Viento Variable Viento desde OSO
Gusts 25.0 mph

Hoy
Alta -- | Baja -- ° F
--% Posibilidad de precipitaciones
Ayer
Alta -- | Baja -- ° F
Precip. -- pul
6:10 AM 7:38 PM
Creciente, 17% visible
Presión 29.77 pul
Visibilidad 10.0 Millas
Nubes Despejado
Índice de calor 81 ° F
Punto de rocío 48 ° F
Humedad 30%
Precipitaciones 0.00 pul
Espesor de la nieve No disponible.
UV 6 de una escala de 12
Polen 6.30 de una escala de 12
Calidad del aire No disponible.
Flu Activity No disponible.
METAR KPSC 292153Z 22012G19KT 10SM CLR 32/10 A2978 RMK AO2 SLP081 T03220100

More Conditions Fewer Conditions

Presión 29.77 pul
Visibilidad 10.0 Millas
Nubes Despejado
Índice de calor 81 ° F
Punto de rocío 48 ° F
Humedad 30%
Precipitaciones 0.00 pul
Espesor de la nieve No disponible.
UV 6 de una escala de 12
Polen 6.30 de una escala de 12
Calidad del aire No disponible.
Flu Activity No disponible.
METAR KPSC 292153Z 22012G19KT 10SM CLR 32/10 A2978 RMK AO2 SLP081 T03220100

More Conditions Fewer Conditions

10-Day Weather Forecast

Almanac

Astronomía

Aug. 29, 2014 Salida Puesta
Hora real 6:10 AM PDT 7:38 PM PDT
Crepúsculo civil 5:38 AM PDT 8:10 PM PDT
Crepúsculo náutico 5:00 AM PDT 8:48 PM PDT
Crepúsculo astronómico 4:18 AM PDT 9:29 PM PDT
Luna 10:21 AM PDT 9:21 PM PDT
Horas de luz 14h 31m
Horas de luz
13h 28m
Tomorrow will be 3m 10s shorter.
Creciente, 17% of the Moon is Illuminated
Hoy
Creciente
Sep 2
Cuarto creciente
Sep 8
Luna llena
Sep 15
Cuarto menguante
Sep 24
Nueva

Extremos de hoy

Máximos del estado Bajos del estado

Community

WunderPhotos

Upload Photos

1,748,356 ¡fotos cargadas!

Nearby

Grosos de nieve

Estación Profundido Altura
Touchet 0 in 5530 ft
Spruce Springs 0 in 5700 ft
Sourdough Gulch 0 in 4000 ft
Trough 0 in 5300 ft
Grouse Camp 1 in 5380 ft

Actividad de terremotos

Ciudad Distance Mag. Tiempo y dato
No hay informes recientes de la actividad sísmica.
Magnitud mínima muestra es 2,5.

Temperaturas de aguas costeras

Lugar Temperatura
Sin partes meteorológicos de las estaciones

Estaciones meteorológicas cercanas